sensor_id;sensor_type;location;lat;lon;timestamp;temperature;humidity
35381;DHT22;21486;51.916;8.378;2023-06-14T00:02:06;18.80;51.60
35381;DHT22;21486;51.916;8.378;2023-06-14T00:04:33;18.70;51.30
35381;DHT22;21486;51.916;8.378;2023-06-14T00:07:00;18.70;51.50
35381;DHT22;21486;51.916;8.378;2023-06-14T00:09:25;18.70;51.30
35381;DHT22;21486;51.916;8.378;2023-06-14T00:11:50;18.60;51.70
35381;DHT22;21486;51.916;8.378;2023-06-14T00:14:16;18.70;51.40
35381;DHT22;21486;51.916;8.378;2023-06-14T00:16:41;18.70;52.00
35381;DHT22;21486;51.916;8.378;2023-06-14T00:19:10;18.60;51.70
35381;DHT22;21486;51.916;8.378;2023-06-14T00:21:36;18.60;51.90
35381;DHT22;21486;51.916;8.378;2023-06-14T00:24:02;18.60;52.70
35381;DHT22;21486;51.916;8.378;2023-06-14T00:26:27;18.40;52.00
35381;DHT22;21486;51.916;8.378;2023-06-14T00:28:53;18.40;52.40
35381;DHT22;21486;51.916;8.378;2023-06-14T00:33:02;18.30;52.10
35381;DHT22;21486;51.916;8.378;2023-06-14T00:35:27;18.30;52.80
35381;DHT22;21486;51.916;8.378;2023-06-14T00:37:53;18.20;52.90
35381;DHT22;21486;51.916;8.378;2023-06-14T00:40:20;18.20;52.70
35381;DHT22;21486;51.916;8.378;2023-06-14T00:42:46;18.20;53.00
35381;DHT22;21486;51.916;8.378;2023-06-14T00:45:12;18.20;53.40
35381;DHT22;21486;51.916;8.378;2023-06-14T00:47:38;18.10;53.40
35381;DHT22;21486;51.916;8.378;2023-06-14T00:50:07;18.10;53.40
35381;DHT22;21486;51.916;8.378;2023-06-14T00:52:33;18.10;53.60
35381;DHT22;21486;51.916;8.378;2023-06-14T00:55:00;18.00;53.80
35381;DHT22;21486;51.916;8.378;2023-06-14T00:57:27;18.00;53.80
35381;DHT22;21486;51.916;8.378;2023-06-14T00:59:52;18.10;53.90
35381;DHT22;21486;51.916;8.378;2023-06-14T01:02:18;18.00;54.70
35381;DHT22;21486;51.916;8.378;2023-06-14T01:04:46;18.00;53.80
35381;DHT22;21486;51.916;8.378;2023-06-14T01:07:46;18.00;54.30
35381;DHT22;21486;51.916;8.378;2023-06-14T01:10:35;18.00;54.10
35381;DHT22;21486;51.916;8.378;2023-06-14T01:13:07;17.90;54.20
35381;DHT22;21486;51.916;8.378;2023-06-14T01:15:34;17.80;54.40
35381;DHT22;21486;51.916;8.378;2023-06-14T01:18:00;17.80;54.90
35381;DHT22;21486;51.916;8.378;2023-06-14T01:20:32;17.80;54.50
35381;DHT22;21486;51.916;8.378;2023-06-14T01:22:58;17.80;55.20
35381;DHT22;21486;51.916;8.378;2023-06-14T01:25:24;17.80;55.30
35381;DHT22;21486;51.916;8.378;2023-06-14T01:27:58;17.70;55.30
35381;DHT22;21486;51.916;8.378;2023-06-14T01:30:25;17.70;55.80
35381;DHT22;21486;51.916;8.378;2023-06-14T01:32:52;17.60;55.30
35381;DHT22;21486;51.916;8.378;2023-06-14T01:35:18;17.70;55.40
35381;DHT22;21486;51.916;8.378;2023-06-14T01:37:46;17.60;55.80
35381;DHT22;21486;51.916;8.378;2023-06-14T01:40:12;17.50;56.10
35381;DHT22;21486;51.916;8.378;2023-06-14T01:42:39;17.50;56.30
35381;DHT22;21486;51.916;8.378;2023-06-14T01:45:06;17.50;57.00
35381;DHT22;21486;51.916;8.378;2023-06-14T01:47:32;17.40;57.00
35381;DHT22;21486;51.916;8.378;2023-06-14T01:49:58;17.50;57.20
35381;DHT22;21486;51.916;8.378;2023-06-14T01:52:24;17.40;57.30
35381;DHT22;21486;51.916;8.378;2023-06-14T01:54:50;17.30;57.60
35381;DHT22;21486;51.916;8.378;2023-06-14T01:57:16;17.20;57.50
35381;DHT22;21486;51.916;8.378;2023-06-14T01:59:42;17.20;57.70
35381;DHT22;21486;51.916;8.378;2023-06-14T02:02:07;17.10;57.80
35381;DHT22;21486;51.916;8.378;2023-06-14T02:04:33;17.10;58.50
35381;DHT22;21486;51.916;8.378;2023-06-14T02:06:59;17.00;57.60
35381;DHT22;21486;51.916;8.378;2023-06-14T02:09:25;17.00;58.20
35381;DHT22;21486;51.916;8.378;2023-06-14T02:11:50;17.00;58.20
35381;DHT22;21486;51.916;8.378;2023-06-14T02:14:16;16.90;59.30
35381;DHT22;21486;51.916;8.378;2023-06-14T02:16:42;16.80;59.10
35381;DHT22;21486;51.916;8.378;2023-06-14T02:19:15;16.90;57.90
35381;DHT22;21486;51.916;8.378;2023-06-14T02:21:40;16.80;59.00
35381;DHT22;21486;51.916;8.378;2023-06-14T02:24:06;16.90;59.30
35381;DHT22;21486;51.916;8.378;2023-06-14T02:26:32;16.80;59.60
35381;DHT22;21486;51.916;8.378;2023-06-14T02:28:58;16.80;58.90
35381;DHT22;21486;51.916;8.378;2023-06-14T02:31:23;16.70;59.50
35381;DHT22;21486;51.916;8.378;2023-06-14T02:33:49;16.60;60.20
35381;DHT22;21486;51.916;8.378;2023-06-14T02:36:15;16.60;59.90
35381;DHT22;21486;51.916;8.378;2023-06-14T02:38:40;16.60;60.30
35381;DHT22;21486;51.916;8.378;2023-06-14T02:41:06;16.50;59.70
35381;DHT22;21486;51.916;8.378;2023-06-14T02:43:31;16.50;61.60
35381;DHT22;21486;51.916;8.378;2023-06-14T02:45:57;16.40;60.60
35381;DHT22;21486;51.916;8.378;2023-06-14T02:48:22;16.40;60.70
35381;DHT22;21486;51.916;8.378;2023-06-14T02:50:48;16.40;61.20
35381;DHT22;21486;51.916;8.378;2023-06-14T02:53:14;16.30;61.70
35381;DHT22;21486;51.916;8.378;2023-06-14T02:55:39;16.30;62.10
35381;DHT22;21486;51.916;8.378;2023-06-14T02:58:06;16.20;62.40
35381;DHT22;21486;51.916;8.378;2023-06-14T03:00:31;16.10;62.50
35381;DHT22;21486;51.916;8.378;2023-06-14T03:02:57;16.10;63.30
35381;DHT22;21486;51.916;8.378;2023-06-14T03:05:22;16.00;63.40
35381;DHT22;21486;51.916;8.378;2023-06-14T03:07:49;16.00;63.40
35381;DHT22;21486;51.916;8.378;2023-06-14T03:10:15;16.00;63.70
35381;DHT22;21486;51.916;8.378;2023-06-14T03:12:41;15.90;62.90
35381;DHT22;21486;51.916;8.378;2023-06-14T03:15:07;16.00;63.70
35381;DHT22;21486;51.916;8.378;2023-06-14T03:17:33;16.00;63.10
35381;DHT22;21486;51.916;8.378;2023-06-14T03:20:00;15.90;64.20
35381;DHT22;21486;51.916;8.378;2023-06-14T03:22:26;16.00;64.20
35381;DHT22;21486;51.916;8.378;2023-06-14T03:24:52;15.80;64.10
35381;DHT22;21486;51.916;8.378;2023-06-14T03:27:19;15.90;64.20
35381;DHT22;21486;51.916;8.378;2023-06-14T03:29:44;15.80;63.70
35381;DHT22;21486;51.916;8.378;2023-06-14T03:32:10;15.80;63.60
35381;DHT22;21486;51.916;8.378;2023-06-14T03:34:36;15.90;64.50
35381;DHT22;21486;51.916;8.378;2023-06-14T03:37:03;15.90;64.30
35381;DHT22;21486;51.916;8.378;2023-06-14T03:39:29;15.90;63.90
35381;DHT22;21486;51.916;8.378;2023-06-14T03:41:54;15.90;64.90
35381;DHT22;21486;51.916;8.378;2023-06-14T03:44:20;15.90;64.90
35381;DHT22;21486;51.916;8.378;2023-06-14T03:46:46;15.80;64.20
35381;DHT22;21486;51.916;8.378;2023-06-14T03:49:12;15.80;65.30
35381;DHT22;21486;51.916;8.378;2023-06-14T03:51:38;15.70;65.70
35381;DHT22;21486;51.916;8.378;2023-06-14T03:54:03;15.70;65.00
35381;DHT22;21486;51.916;8.378;2023-06-14T03:56:29;15.80;65.40
35381;DHT22;21486;51.916;8.378;2023-06-14T03:58:54;15.80;66.30
35381;DHT22;21486;51.916;8.378;2023-06-14T04:01:20;15.80;66.30
35381;DHT22;21486;51.916;8.378;2023-06-14T04:03:46;15.70;67.10
35381;DHT22;21486;51.916;8.378;2023-06-14T04:06:12;15.70;66.20
35381;DHT22;21486;51.916;8.378;2023-06-14T04:08:37;15.70;67.50
35381;DHT22;21486;51.916;8.378;2023-06-14T04:11:05;15.70;67.00
35381;DHT22;21486;51.916;8.378;2023-06-14T04:13:30;15.70;66.00
35381;DHT22;21486;51.916;8.378;2023-06-14T04:15:56;15.70;65.50
35381;DHT22;21486;51.916;8.378;2023-06-14T04:18:22;15.80;66.10
35381;DHT22;21486;51.916;8.378;2023-06-14T04:20:47;15.90;64.90
35381;DHT22;21486;51.916;8.378;2023-06-14T04:23:17;16.00;64.80
35381;DHT22;21486;51.916;8.378;2023-06-14T04:25:47;16.10;63.90
35381;DHT22;21486;51.916;8.378;2023-06-14T04:28:13;16.30;64.30
35381;DHT22;21486;51.916;8.378;2023-06-14T04:30:40;16.40;62.70
35381;DHT22;21486;51.916;8.378;2023-06-14T04:33:06;16.70;63.10
35381;DHT22;21486;51.916;8.378;2023-06-14T04:35:32;16.80;63.40
35381;DHT22;21486;51.916;8.378;2023-06-14T04:37:58;17.10;62.50
35381;DHT22;21486;51.916;8.378;2023-06-14T04:40:24;17.30;60.60
35381;DHT22;21486;51.916;8.378;2023-06-14T04:42:50;17.30;60.50
35381;DHT22;21486;51.916;8.378;2023-06-14T04:45:16;17.60;60.70
35381;DHT22;21486;51.916;8.378;2023-06-14T04:47:42;18.20;59.40
35381;DHT22;21486;51.916;8.378;2023-06-14T04:50:09;19.30;56.60
35381;DHT22;21486;51.916;8.378;2023-06-14T04:52:36;20.50;52.90
35381;DHT22;21486;51.916;8.378;2023-06-14T04:55:02;21.70;50.00
35381;DHT22;21486;51.916;8.378;2023-06-14T04:57:28;22.30;48.50
35381;DHT22;21486;51.916;8.378;2023-06-14T05:02:21;22.90;46.90
35381;DHT22;21486;51.916;8.378;2023-06-14T05:04:48;23.50;47.10
35381;DHT22;21486;51.916;8.378;2023-06-14T05:07:13;23.90;45.70
35381;DHT22;21486;51.916;8.378;2023-06-14T05:09:39;24.30;45.10
35381;DHT22;21486;51.916;8.378;2023-06-14T05:12:05;25.00;44.10
35381;DHT22;21486;51.916;8.378;2023-06-14T05:14:33;25.40;43.60
35381;DHT22;21486;51.916;8.378;2023-06-14T05:16:59;25.50;42.50
35381;DHT22;21486;51.916;8.378;2023-06-14T05:19:25;25.50;42.10
35381;DHT22;21486;51.916;8.378;2023-06-14T05:21:50;25.30;42.20
35381;DHT22;21486;51.916;8.378;2023-06-14T05:24:16;25.20;42.30
35381;DHT22;21486;51.916;8.378;2023-06-14T05:26:45;25.30;42.90
35381;DHT22;21486;51.916;8.378;2023-06-14T05:29:10;25.90;41.80
35381;DHT22;21486;51.916;8.378;2023-06-14T05:31:36;25.50;41.50
35381;DHT22;21486;51.916;8.378;2023-06-14T05:34:02;25.00;42.40
35381;DHT22;21486;51.916;8.378;2023-06-14T05:36:27;25.20;42.80
35381;DHT22;21486;51.916;8.378;2023-06-14T05:38:53;25.60;41.60
35381;DHT22;21486;51.916;8.378;2023-06-14T05:41:26;25.70;41.10
35381;DHT22;21486;51.916;8.378;2023-06-14T05:43:53;25.20;42.50
35381;DHT22;21486;51.916;8.378;2023-06-14T05:46:19;25.30;42.50
35381;DHT22;21486;51.916;8.378;2023-06-14T05:48:50;24.80;42.80
35381;DHT22;21486;51.916;8.378;2023-06-14T05:51:16;24.60;43.70
35381;DHT22;21486;51.916;8.378;2023-06-14T05:53:44;25.10;43.20
35381;DHT22;21486;51.916;8.378;2023-06-14T05:56:10;25.70;42.00
35381;DHT22;21486;51.916;8.378;2023-06-14T05:58:35;25.70;41.90
35381;DHT22;21486;51.916;8.378;2023-06-14T06:01:01;26.00;41.60
35381;DHT22;21486;51.916;8.378;2023-06-14T06:03:27;26.50;41.00
35381;DHT22;21486;51.916;8.378;2023-06-14T06:05:54;26.20;40.90
35381;DHT22;21486;51.916;8.378;2023-06-14T06:08:20;25.70;42.10
35381;DHT22;21486;51.916;8.378;2023-06-14T06:10:46;25.60;42.00
35381;DHT22;21486;51.916;8.378;2023-06-14T06:13:11;25.20;42.40
35381;DHT22;21486;51.916;8.378;2023-06-14T06:15:36;25.80;42.50
35381;DHT22;21486;51.916;8.378;2023-06-14T06:18:02;25.90;42.10
35381;DHT22;21486;51.916;8.378;2023-06-14T06:20:28;26.00;41.70
35381;DHT22;21486;51.916;8.378;2023-06-14T06:22:56;26.30;40.80
35381;DHT22;21486;51.916;8.378;2023-06-14T06:25:21;26.10;40.60
35381;DHT22;21486;51.916;8.378;2023-06-14T06:27:47;25.80;40.50
35381;DHT22;21486;51.916;8.378;2023-06-14T06:30:13;25.50;41.20
35381;DHT22;21486;51.916;8.378;2023-06-14T06:32:38;25.70;41.50
35381;DHT22;21486;51.916;8.378;2023-06-14T06:35:04;26.00;41.20
35381;DHT22;21486;51.916;8.378;2023-06-14T06:37:31;26.50;39.80
35381;DHT22;21486;51.916;8.378;2023-06-14T06:39:57;26.20;39.60
35381;DHT22;21486;51.916;8.378;2023-06-14T06:42:22;25.90;40.80
35381;DHT22;21486;51.916;8.378;2023-06-14T06:44:47;25.90;39.70
35381;DHT22;21486;51.916;8.378;2023-06-14T06:47:13;26.10;40.70
35381;DHT22;21486;51.916;8.378;2023-06-14T06:49:38;26.00;38.80
35381;DHT22;21486;51.916;8.378;2023-06-14T06:52:04;25.70;39.30
35381;DHT22;21486;51.916;8.378;2023-06-14T06:54:30;25.70;39.50
35381;DHT22;21486;51.916;8.378;2023-06-14T06:56:56;25.90;39.90
35381;DHT22;21486;51.916;8.378;2023-06-14T06:59:21;26.30;38.40
35381;DHT22;21486;51.916;8.378;2023-06-14T07:01:47;26.00;39.20
35381;DHT22;21486;51.916;8.378;2023-06-14T07:04:13;26.60;38.70
35381;DHT22;21486;51.916;8.378;2023-06-14T07:06:38;26.40;39.10
35381;DHT22;21486;51.916;8.378;2023-06-14T07:09:04;26.90;38.80
35381;DHT22;21486;51.916;8.378;2023-06-14T07:11:32;27.60;37.20
35381;DHT22;21486;51.916;8.378;2023-06-14T07:13:57;27.20;37.50
35381;DHT22;21486;51.916;8.378;2023-06-14T07:16:22;26.60;38.90
35381;DHT22;21486;51.916;8.378;2023-06-14T07:18:48;26.40;39.30
35381;DHT22;21486;51.916;8.378;2023-06-14T07:21:14;27.10;38.50
35381;DHT22;21486;51.916;8.378;2023-06-14T07:23:39;28.20;37.70
35381;DHT22;21486;51.916;8.378;2023-06-14T07:26:05;28.50;37.30
35381;DHT22;21486;51.916;8.378;2023-06-14T07:28:30;29.30;35.60
35381;DHT22;21486;51.916;8.378;2023-06-14T07:30:56;28.00;37.00
35381;DHT22;21486;51.916;8.378;2023-06-14T07:33:21;28.30;37.20
35381;DHT22;21486;51.916;8.378;2023-06-14T07:35:47;28.70;37.30
35381;DHT22;21486;51.916;8.378;2023-06-14T07:38:13;29.20;36.20
35381;DHT22;21486;51.916;8.378;2023-06-14T07:40:38;29.00;36.20
35381;DHT22;21486;51.916;8.378;2023-06-14T07:43:04;28.20;37.00
35381;DHT22;21486;51.916;8.378;2023-06-14T07:45:29;27.90;37.60
35381;DHT22;21486;51.916;8.378;2023-06-14T07:47:55;27.90;38.10
35381;DHT22;21486;51.916;8.378;2023-06-14T07:50:20;27.00;38.40
35381;DHT22;21486;51.916;8.378;2023-06-14T07:52:46;27.70;38.30
35381;DHT22;21486;51.916;8.378;2023-06-14T07:55:13;28.30;37.60
35381;DHT22;21486;51.916;8.378;2023-06-14T07:57:40;28.00;36.60
35381;DHT22;21486;51.916;8.378;2023-06-14T08:00:06;27.90;37.70
35381;DHT22;21486;51.916;8.378;2023-06-14T08:02:32;27.50;37.40
35381;DHT22;21486;51.916;8.378;2023-06-14T08:04:57;27.50;38.80
35381;DHT22;21486;51.916;8.378;2023-06-14T08:07:23;27.30;38.50
35381;DHT22;21486;51.916;8.378;2023-06-14T08:09:49;27.80;38.40
35381;DHT22;21486;51.916;8.378;2023-06-14T08:12:15;28.10;37.80
35381;DHT22;21486;51.916;8.378;2023-06-14T08:14:41;27.40;38.10
35381;DHT22;21486;51.916;8.378;2023-06-14T08:17:07;27.30;38.50
35381;DHT22;21486;51.916;8.378;2023-06-14T08:19:32;26.80;39.80
35381;DHT22;21486;51.916;8.378;2023-06-14T08:21:58;26.90;40.10
35381;DHT22;21486;51.916;8.378;2023-06-14T08:24:23;27.60;40.10
35381;DHT22;21486;51.916;8.378;2023-06-14T08:26:54;27.80;39.30
35381;DHT22;21486;51.916;8.378;2023-06-14T08:29:21;27.60;39.20
35381;DHT22;21486;51.916;8.378;2023-06-14T08:31:47;26.90;39.50
35381;DHT22;21486;51.916;8.378;2023-06-14T08:34:13;27.30;40.00
35381;DHT22;21486;51.916;8.378;2023-06-14T08:36:38;27.40;38.80
35381;DHT22;21486;51.916;8.378;2023-06-14T08:39:04;27.00;40.00
35381;DHT22;21486;51.916;8.378;2023-06-14T08:41:29;27.80;39.80
35381;DHT22;21486;51.916;8.378;2023-06-14T08:43:56;28.00;38.70
35381;DHT22;21486;51.916;8.378;2023-06-14T08:46:21;27.80;39.10
35381;DHT22;21486;51.916;8.378;2023-06-14T08:48:49;26.80;39.80
35381;DHT22;21486;51.916;8.378;2023-06-14T08:51:16;26.40;41.10
35381;DHT22;21486;51.916;8.378;2023-06-14T08:53:43;25.70;41.90
35381;DHT22;21486;51.916;8.378;2023-06-14T08:56:09;25.70;41.10
35381;DHT22;21486;51.916;8.378;2023-06-14T08:58:40;26.10;40.40
35381;DHT22;21486;51.916;8.378;2023-06-14T09:01:08;26.20;40.80
35381;DHT22;21486;51.916;8.378;2023-06-14T09:03:37;25.70;41.30
35381;DHT22;21486;51.916;8.378;2023-06-14T09:06:06;26.30;40.70
35381;DHT22;21486;51.916;8.378;2023-06-14T09:08:34;26.10;40.40
35381;DHT22;21486;51.916;8.378;2023-06-14T09:11:03;26.20;40.60
35381;DHT22;21486;51.916;8.378;2023-06-14T09:13:30;26.10;41.20
35381;DHT22;21486;51.916;8.378;2023-06-14T09:15:55;26.60;40.80
35381;DHT22;21486;51.916;8.378;2023-06-14T09:18:21;26.60;40.10
35381;DHT22;21486;51.916;8.378;2023-06-14T09:20:46;26.10;40.80
35381;DHT22;21486;51.916;8.378;2023-06-14T09:23:13;26.30;41.90
35381;DHT22;21486;51.916;8.378;2023-06-14T09:25:45;26.30;41.50
35381;DHT22;21486;51.916;8.378;2023-06-14T09:28:11;26.20;42.20
35381;DHT22;21486;51.916;8.378;2023-06-14T09:30:37;26.40;40.90
35381;DHT22;21486;51.916;8.378;2023-06-14T09:33:02;26.70;40.80
35381;DHT22;21486;51.916;8.378;2023-06-14T09:35:28;27.40;39.90
35381;DHT22;21486;51.916;8.378;2023-06-14T09:37:56;27.40;39.90
35381;DHT22;21486;51.916;8.378;2023-06-14T09:40:22;26.30;40.00
35381;DHT22;21486;51.916;8.378;2023-06-14T09:42:47;26.10;40.80
35381;DHT22;21486;51.916;8.378;2023-06-14T09:45:13;26.30;40.80
35381;DHT22;21486;51.916;8.378;2023-06-14T09:47:40;26.20;41.40
35381;DHT22;21486;51.916;8.378;2023-06-14T09:50:06;26.80;40.80
35381;DHT22;21486;51.916;8.378;2023-06-14T09:52:31;27.50;40.20
35381;DHT22;21486;51.916;8.378;2023-06-14T09:54:57;27.30;38.60
35381;DHT22;21486;51.916;8.378;2023-06-14T09:57:24;27.10;39.20
35381;DHT22;21486;51.916;8.378;2023-06-14T09:59:56;26.60;40.20
35381;DHT22;21486;51.916;8.378;2023-06-14T10:02:37;26.60;40.40
35381;DHT22;21486;51.916;8.378;2023-06-14T10:05:04;27.00;39.80
35381;DHT22;21486;51.916;8.378;2023-06-14T10:07:32;27.40;39.00
35381;DHT22;21486;51.916;8.378;2023-06-14T10:09:57;27.50;38.70
35381;DHT22;21486;51.916;8.378;2023-06-14T10:12:23;27.10;39.70
35381;DHT22;21486;51.916;8.378;2023-06-14T10:14:49;27.50;39.60
35381;DHT22;21486;51.916;8.378;2023-06-14T10:17:23;28.60;38.40
35381;DHT22;21486;51.916;8.378;2023-06-14T10:19:50;29.30;37.40
35381;DHT22;21486;51.916;8.378;2023-06-14T10:22:21;29.20;36.10
35381;DHT22;21486;51.916;8.378;2023-06-14T10:24:48;28.50;36.20
35381;DHT22;21486;51.916;8.378;2023-06-14T10:27:15;27.50;37.60
35381;DHT22;21486;51.916;8.378;2023-06-14T10:32:21;26.90;40.00
35381;DHT22;21486;51.916;8.378;2023-06-14T10:35:01;27.10;40.00
35381;DHT22;21486;51.916;8.378;2023-06-14T10:37:29;26.90;39.00
35381;DHT22;21486;51.916;8.378;2023-06-14T10:39:54;27.10;39.70
35381;DHT22;21486;51.916;8.378;2023-06-14T10:42:20;27.10;39.50
35381;DHT22;21486;51.916;8.378;2023-06-14T10:44:51;27.60;39.80
35381;DHT22;21486;51.916;8.378;2023-06-14T10:47:30;28.10;38.40
35381;DHT22;21486;51.916;8.378;2023-06-14T10:52:27;28.40;38.60
35381;DHT22;21486;51.916;8.378;2023-06-14T10:55:04;28.40;38.20
35381;DHT22;21486;51.916;8.378;2023-06-14T10:57:34;28.50;37.80
35381;DHT22;21486;51.916;8.378;2023-06-14T11:00:00;28.90;38.00
35381;DHT22;21486;51.916;8.378;2023-06-14T11:02:45;28.90;37.10
35381;DHT22;21486;51.916;8.378;2023-06-14T11:05:14;28.80;37.80
35381;DHT22;21486;51.916;8.378;2023-06-14T11:07:58;28.50;38.60
35381;DHT22;21486;51.916;8.378;2023-06-14T11:12:55;28.30;38.60
35381;DHT22;21486;51.916;8.378;2023-06-14T11:15:27;28.70;38.70
35381;DHT22;21486;51.916;8.378;2023-06-14T11:17:53;27.50;38.90
35381;DHT22;21486;51.916;8.378;2023-06-14T11:20:18;27.50;39.10
35381;DHT22;21486;51.916;8.378;2023-06-14T11:22:44;27.10;39.40
35381;DHT22;21486;51.916;8.378;2023-06-14T11:25:11;26.90;41.20
35381;DHT22;21486;51.916;8.378;2023-06-14T11:27:36;27.20;40.30
35381;DHT22;21486;51.916;8.378;2023-06-14T11:30:02;27.50;39.70
35381;DHT22;21486;51.916;8.378;2023-06-14T11:32:28;27.50;38.80
35381;DHT22;21486;51.916;8.378;2023-06-14T11:34:53;26.40;40.20
35381;DHT22;21486;51.916;8.378;2023-06-14T11:37:19;26.30;42.20
35381;DHT22;21486;51.916;8.378;2023-06-14T11:39:45;26.90;41.10
35381;DHT22;21486;51.916;8.378;2023-06-14T11:42:16;27.60;40.70
35381;DHT22;21486;51.916;8.378;2023-06-14T11:44:41;27.50;39.50
35381;DHT22;21486;51.916;8.378;2023-06-14T11:47:07;27.60;40.50
35381;DHT22;21486;51.916;8.378;2023-06-14T11:49:38;27.50;39.30
35381;DHT22;21486;51.916;8.378;2023-06-14T11:52:03;27.40;39.60
35381;DHT22;21486;51.916;8.378;2023-06-14T11:54:29;27.20;39.60
35381;DHT22;21486;51.916;8.378;2023-06-14T11:56:54;27.20;39.90
35381;DHT22;21486;51.916;8.378;2023-06-14T11:59:20;26.90;40.00
35381;DHT22;21486;51.916;8.378;2023-06-14T12:01:47;27.60;39.30
35381;DHT22;21486;51.916;8.378;2023-06-14T12:04:13;28.00;39.10
35381;DHT22;21486;51.916;8.378;2023-06-14T12:06:38;28.40;39.00
35381;DHT22;21486;51.916;8.378;2023-06-14T12:09:05;28.10;38.40
35381;DHT22;21486;51.916;8.378;2023-06-14T12:11:38;28.00;37.40
35381;DHT22;21486;51.916;8.378;2023-06-14T12:14:04;27.50;37.30
35381;DHT22;21486;51.916;8.378;2023-06-14T12:16:31;28.00;37.80
35381;DHT22;21486;51.916;8.378;2023-06-14T12:18:59;27.80;37.20
35381;DHT22;21486;51.916;8.378;2023-06-14T12:21:25;27.70;38.00
35381;DHT22;21486;51.916;8.378;2023-06-14T12:23:53;27.20;39.20
35381;DHT22;21486;51.916;8.378;2023-06-14T12:26:19;26.50;39.70
35381;DHT22;21486;51.916;8.378;2023-06-14T12:28:45;26.10;40.60
35381;DHT22;21486;51.916;8.378;2023-06-14T12:31:11;25.90;41.70
35381;DHT22;21486;51.916;8.378;2023-06-14T12:33:37;26.10;41.90
35381;DHT22;21486;51.916;8.378;2023-06-14T12:36:03;26.00;41.90
35381;DHT22;21486;51.916;8.378;2023-06-14T12:38:29;26.30;42.40
35381;DHT22;21486;51.916;8.378;2023-06-14T12:40:54;26.30;41.80
35381;DHT22;21486;51.916;8.378;2023-06-14T12:43:20;26.70;42.80
35381;DHT22;21486;51.916;8.378;2023-06-14T12:45:45;26.80;40.80
35381;DHT22;21486;51.916;8.378;2023-06-14T12:48:11;26.70;40.40
35381;DHT22;21486;51.916;8.378;2023-06-14T12:50:36;26.30;40.60
35381;DHT22;21486;51.916;8.378;2023-06-14T12:53:02;26.20;41.70
35381;DHT22;21486;51.916;8.378;2023-06-14T12:55:27;25.90;41.40
35381;DHT22;21486;51.916;8.378;2023-06-14T12:57:53;25.60;41.60
35381;DHT22;21486;51.916;8.378;2023-06-14T13:00:18;25.40;42.00
35381;DHT22;21486;51.916;8.378;2023-06-14T13:02:45;25.30;42.30
35381;DHT22;21486;51.916;8.378;2023-06-14T13:05:11;25.40;41.60
35381;DHT22;21486;51.916;8.378;2023-06-14T13:07:36;25.50;41.80
35381;DHT22;21486;51.916;8.378;2023-06-14T13:10:03;25.40;42.00
35381;DHT22;21486;51.916;8.378;2023-06-14T13:12:28;25.60;42.90
35381;DHT22;21486;51.916;8.378;2023-06-14T13:14:54;25.60;42.40
35381;DHT22;21486;51.916;8.378;2023-06-14T13:17:19;25.60;43.30
35381;DHT22;21486;51.916;8.378;2023-06-14T13:19:45;25.20;41.10
35381;DHT22;21486;51.916;8.378;2023-06-14T13:22:10;25.10;42.60
35381;DHT22;21486;51.916;8.378;2023-06-14T13:24:36;25.20;42.20
35381;DHT22;21486;51.916;8.378;2023-06-14T13:27:01;25.30;41.90
35381;DHT22;21486;51.916;8.378;2023-06-14T13:29:27;25.20;42.40
35381;DHT22;21486;51.916;8.378;2023-06-14T13:31:53;24.70;42.20
35381;DHT22;21486;51.916;8.378;2023-06-14T13:34:19;24.60;43.20
35381;DHT22;21486;51.916;8.378;2023-06-14T13:36:44;24.50;43.20
35381;DHT22;21486;51.916;8.378;2023-06-14T13:39:10;24.70;43.80
35381;DHT22;21486;51.916;8.378;2023-06-14T13:41:36;25.00;43.10
35381;DHT22;21486;51.916;8.378;2023-06-14T13:44:01;25.20;43.30
35381;DHT22;21486;51.916;8.378;2023-06-14T13:46:29;25.20;42.80
35381;DHT22;21486;51.916;8.378;2023-06-14T13:48:54;25.20;42.90
35381;DHT22;21486;51.916;8.378;2023-06-14T13:51:20;24.80;43.00
35381;DHT22;21486;51.916;8.378;2023-06-14T13:53:46;24.60;43.40
35381;DHT22;21486;51.916;8.378;2023-06-14T13:56:12;24.50;43.50
35381;DHT22;21486;51.916;8.378;2023-06-14T13:58:38;24.60;44.10
35381;DHT22;21486;51.916;8.378;2023-06-14T14:01:03;24.90;43.20
35381;DHT22;21486;51.916;8.378;2023-06-14T14:03:29;25.10;42.60
35381;DHT22;21486;51.916;8.378;2023-06-14T14:05:54;25.50;42.40
35381;DHT22;21486;51.916;8.378;2023-06-14T14:08:19;25.40;42.40
35381;DHT22;21486;51.916;8.378;2023-06-14T14:10:45;24.60;43.00
35381;DHT22;21486;51.916;8.378;2023-06-14T14:13:11;24.50;43.10
35381;DHT22;21486;51.916;8.378;2023-06-14T14:15:37;24.50;43.60
35381;DHT22;21486;51.916;8.378;2023-06-14T14:18:03;24.50;44.70
35381;DHT22;21486;51.916;8.378;2023-06-14T14:20:29;24.70;43.70
35381;DHT22;21486;51.916;8.378;2023-06-14T14:22:55;25.00;43.50
35381;DHT22;21486;51.916;8.378;2023-06-14T14:25:21;25.20;43.20
35381;DHT22;21486;51.916;8.378;2023-06-14T14:27:47;25.40;42.40
35381;DHT22;21486;51.916;8.378;2023-06-14T14:30:12;25.20;42.40
35381;DHT22;21486;51.916;8.378;2023-06-14T14:32:39;25.10;42.60
35381;DHT22;21486;51.916;8.378;2023-06-14T14:35:05;25.10;43.70
35381;DHT22;21486;51.916;8.378;2023-06-14T14:37:31;25.10;43.10
35381;DHT22;21486;51.916;8.378;2023-06-14T14:39:56;25.00;43.30
35381;DHT22;21486;51.916;8.378;2023-06-14T14:42:22;24.90;42.90
35381;DHT22;21486;51.916;8.378;2023-06-14T14:44:47;24.90;42.40
35381;DHT22;21486;51.916;8.378;2023-06-14T14:47:13;24.90;42.30
35381;DHT22;21486;51.916;8.378;2023-06-14T14:49:38;24.70;43.00
35381;DHT22;21486;51.916;8.378;2023-06-14T14:52:04;24.50;44.50
35381;DHT22;21486;51.916;8.378;2023-06-14T14:54:29;24.50;44.00
35381;DHT22;21486;51.916;8.378;2023-06-14T14:56:55;24.40;43.80
35381;DHT22;21486;51.916;8.378;2023-06-14T14:59:20;24.60;42.80
35381;DHT22;21486;51.916;8.378;2023-06-14T15:01:47;24.70;43.70
35381;DHT22;21486;51.916;8.378;2023-06-14T15:04:12;24.90;43.80
35381;DHT22;21486;51.916;8.378;2023-06-14T15:06:38;24.80;42.90
35381;DHT22;21486;51.916;8.378;2023-06-14T15:09:06;25.00;43.70
35381;DHT22;21486;51.916;8.378;2023-06-14T15:11:32;25.30;43.10
35381;DHT22;21486;51.916;8.378;2023-06-14T15:13:57;25.50;42.30
35381;DHT22;21486;51.916;8.378;2023-06-14T15:16:23;25.30;42.80
35381;DHT22;21486;51.916;8.378;2023-06-14T15:18:48;25.10;42.60
35381;DHT22;21486;51.916;8.378;2023-06-14T15:21:14;24.80;44.00
35381;DHT22;21486;51.916;8.378;2023-06-14T15:23:39;24.60;45.50
35381;DHT22;21486;51.916;8.378;2023-06-14T15:26:05;24.40;45.80
35381;DHT22;21486;51.916;8.378;2023-06-14T15:28:30;24.20;46.20
35381;DHT22;21486;51.916;8.378;2023-06-14T15:30:58;24.10;46.10
35381;DHT22;21486;51.916;8.378;2023-06-14T15:33:24;24.10;46.00
35381;DHT22;21486;51.916;8.378;2023-06-14T15:35:49;24.20;45.80
35381;DHT22;21486;51.916;8.378;2023-06-14T15:38:15;24.20;45.70